Port Mansfield, Texas
Current Conditions -  °F | °C
As of 4:52 PM on Wednesday 22 Oct 2014 (Local Time) from KHRL Reporting Station
Scattered Clouds Scattered Clouds  
Wind Chill: 27°   Ceiling: Unl
Heat Index: 28°   Visibility: 10mi
Dew Point: 20°   Wind: 14mph
Humidity: 67%   Direction: 80°E
Pressure: 29.96"   Gusts: NA
Location:  26.56°N, 97.43°W
Report Text: KHRL 222152Z 08012KT 10SM FEW034 SCT042 SCT050 27/20 A2996 RMK AO2 SLP144 P0001 T02670200
Loading
Personal Weather Stations






























Interactive Weather Map
Tropical Storm Tracking
New forecast layout! Learn more

10-Day Weather Forecast

Advertisements
Track Severe Weather on mobile